sensor_id;sensor_type;location;lat;lon;timestamp;temperature;humidity
24091;DHT22;12272;52.426;17.100;2023-04-01T00:03:35;9.40;99.90
24091;DHT22;12272;52.426;17.100;2023-04-01T00:08:38;9.30;99.90
24091;DHT22;12272;52.426;17.100;2023-04-01T00:13:41;9.30;99.90
24091;DHT22;12272;52.426;17.100;2023-04-01T00:18:44;9.20;99.90
24091;DHT22;12272;52.426;17.100;2023-04-01T00:23:46;9.20;99.90
24091;DHT22;12272;52.426;17.100;2023-04-01T00:28:49;9.10;99.90
24091;DHT22;12272;52.426;17.100;2023-04-01T00:33:52;9.00;99.90
24091;DHT22;12272;52.426;17.100;2023-04-01T00:38:55;9.00;99.90
24091;DHT22;12272;52.426;17.100;2023-04-01T00:44:18;8.90;99.90
24091;DHT22;12272;52.426;17.100;2023-04-01T00:49:37;8.90;99.90
24091;DHT22;12272;52.426;17.100;2023-04-01T00:54:41;8.90;99.90
24091;DHT22;12272;52.426;17.100;2023-04-01T00:59:50;8.90;99.90
24091;DHT22;12272;52.426;17.100;2023-04-01T01:04:54;8.90;99.90
24091;DHT22;12272;52.426;17.100;2023-04-01T01:31:50;8.70;99.90
24091;DHT22;12272;52.426;17.100;2023-04-01T01:36:59;8.70;99.90
24091;DHT22;12272;52.426;17.100;2023-04-01T01:42:06;8.70;99.90
24091;DHT22;12272;52.426;17.100;2023-04-01T01:47:11;8.80;99.90
24091;DHT22;12272;52.426;17.100;2023-04-01T01:52:14;8.80;99.90
24091;DHT22;12272;52.426;17.100;2023-04-01T01:57:20;8.70;99.90
24091;DHT22;12272;52.426;17.100;2023-04-01T02:02:27;8.70;99.90
24091;DHT22;12272;52.426;17.100;2023-04-01T02:07:35;8.70;99.90
24091;DHT22;12272;52.426;17.100;2023-04-01T02:12:41;8.80;99.90
24091;DHT22;12272;52.426;17.100;2023-04-01T02:17:46;8.80;99.90
24091;DHT22;12272;52.426;17.100;2023-04-01T02:22:54;8.80;99.90
24091;DHT22;12272;52.426;17.100;2023-04-01T02:27:59;8.80;99.90
24091;DHT22;12272;52.426;17.100;2023-04-01T02:33:04;8.80;99.90
24091;DHT22;12272;52.426;17.100;2023-04-01T02:38:07;8.80;99.90
24091;DHT22;12272;52.426;17.100;2023-04-01T02:43:11;8.80;99.90
24091;DHT22;12272;52.426;17.100;2023-04-01T02:48:13;8.70;99.90
24091;DHT22;12272;52.426;17.100;2023-04-01T02:53:16;8.70;99.90
24091;DHT22;12272;52.426;17.100;2023-04-01T02:58:19;8.70;99.90
24091;DHT22;12272;52.426;17.100;2023-04-01T03:03:22;8.70;99.90
24091;DHT22;12272;52.426;17.100;2023-04-01T03:08:25;8.70;99.90
24091;DHT22;12272;52.426;17.100;2023-04-01T03:13:28;8.70;99.90
24091;DHT22;12272;52.426;17.100;2023-04-01T03:18:31;8.60;99.90
24091;DHT22;12272;52.426;17.100;2023-04-01T03:23:33;8.60;99.90
24091;DHT22;12272;52.426;17.100;2023-04-01T03:28:36;8.70;99.90
24091;DHT22;12272;52.426;17.100;2023-04-01T03:33:39;8.70;99.90
24091;DHT22;12272;52.426;17.100;2023-04-01T03:38:43;8.70;99.90
24091;DHT22;12272;52.426;17.100;2023-04-01T03:43:50;8.60;99.90
24091;DHT22;12272;52.426;17.100;2023-04-01T03:48:52;8.60;99.90
24091;DHT22;12272;52.426;17.100;2023-04-01T03:53:55;8.60;99.90
24091;DHT22;12272;52.426;17.100;2023-04-01T03:58:58;8.60;99.90
24091;DHT22;12272;52.426;17.100;2023-04-01T04:04:03;8.60;99.90
24091;DHT22;12272;52.426;17.100;2023-04-01T04:09:07;8.60;99.90
24091;DHT22;12272;52.426;17.100;2023-04-01T04:14:09;8.50;99.90
24091;DHT22;12272;52.426;17.100;2023-04-01T04:19:12;8.50;99.90
24091;DHT22;12272;52.426;17.100;2023-04-01T04:24:15;8.50;99.90
24091;DHT22;12272;52.426;17.100;2023-04-01T04:29:36;8.40;99.90
24091;DHT22;12272;52.426;17.100;2023-04-01T04:34:38;8.30;99.90
24091;DHT22;12272;52.426;17.100;2023-04-01T04:39:41;8.20;99.90
24091;DHT22;12272;52.426;17.100;2023-04-01T04:44:44;8.30;99.90
24091;DHT22;12272;52.426;17.100;2023-04-01T04:49:47;8.30;99.90
24091;DHT22;12272;52.426;17.100;2023-04-01T04:54:50;8.30;99.90
24091;DHT22;12272;52.426;17.100;2023-04-01T04:59:52;8.30;99.90
24091;DHT22;12272;52.426;17.100;2023-04-01T05:05:19;8.30;99.90
24091;DHT22;12272;52.426;17.100;2023-04-01T05:10:22;8.40;99.90
24091;DHT22;12272;52.426;17.100;2023-04-01T05:15:24;8.40;99.90
24091;DHT22;12272;52.426;17.100;2023-04-01T05:20:27;8.50;99.90
24091;DHT22;12272;52.426;17.100;2023-04-01T05:25:30;8.50;99.90
24091;DHT22;12272;52.426;17.100;2023-04-01T05:30:33;8.60;99.90
24091;DHT22;12272;52.426;17.100;2023-04-01T05:35:42;8.70;99.90
24091;DHT22;12272;52.426;17.100;2023-04-01T05:40:45;8.70;99.90
24091;DHT22;12272;52.426;17.100;2023-04-01T05:45:48;8.80;99.90
24091;DHT22;12272;52.426;17.100;2023-04-01T05:51:15;8.80;99.90
24091;DHT22;12272;52.426;17.100;2023-04-01T05:56:17;8.80;99.90
24091;DHT22;12272;52.426;17.100;2023-04-01T06:01:24;8.90;99.90
24091;DHT22;12272;52.426;17.100;2023-04-01T06:06:29;8.90;99.90
24091;DHT22;12272;52.426;17.100;2023-04-01T06:39:07;9.00;99.90
24091;DHT22;12272;52.426;17.100;2023-04-01T06:44:23;9.00;99.90
24091;DHT22;12272;52.426;17.100;2023-04-01T06:56:10;9.10;99.90
24091;DHT22;12272;52.426;17.100;2023-04-01T07:01:49;9.10;99.90
24091;DHT22;12272;52.426;17.100;2023-04-01T07:07:01;9.20;99.90
24091;DHT22;12272;52.426;17.100;2023-04-01T07:18:05;9.30;99.90
24091;DHT22;12272;52.426;17.100;2023-04-01T07:23:24;9.30;99.90
24091;DHT22;12272;52.426;17.100;2023-04-01T07:28:44;9.40;99.90
24091;DHT22;12272;52.426;17.100;2023-04-01T07:34:27;9.40;99.90
24091;DHT22;12272;52.426;17.100;2023-04-01T07:45:29;9.50;99.90
24091;DHT22;12272;52.426;17.100;2023-04-01T08:13:13;10.00;99.90
24091;DHT22;12272;52.426;17.100;2023-04-01T08:23:57;10.30;99.90
24091;DHT22;12272;52.426;17.100;2023-04-01T08:29:04;10.30;99.90
24091;DHT22;12272;52.426;17.100;2023-04-01T08:34:16;10.20;99.90
24091;DHT22;12272;52.426;17.100;2023-04-01T09:28:33;9.90;99.90
24091;DHT22;12272;52.426;17.100;2023-04-01T09:38:58;9.40;99.90
24091;DHT22;12272;52.426;17.100;2023-04-01T11:00:18;9.60;99.90
24091;DHT22;12272;52.426;17.100;2023-04-01T11:44:20;9.60;99.90
24091;DHT22;12272;52.426;17.100;2023-04-01T11:50:10;9.60;99.90
24091;DHT22;12272;52.426;17.100;2023-04-01T13:22:09;9.30;99.90
24091;DHT22;12272;52.426;17.100;2023-04-01T13:43:37;9.10;99.90
24091;DHT22;12272;52.426;17.100;2023-04-01T14:10:18;8.80;99.90
24091;DHT22;12272;52.426;17.100;2023-04-01T14:15:41;8.80;99.90
24091;DHT22;12272;52.426;17.100;2023-04-01T14:21:12;8.60;99.90
24091;DHT22;12272;52.426;17.100;2023-04-01T14:42:10;9.00;99.90
24091;DHT22;12272;52.426;17.100;2023-04-01T14:47:46;9.00;99.90
24091;DHT22;12272;52.426;17.100;2023-04-01T14:58:21;8.70;99.90
24091;DHT22;12272;52.426;17.100;2023-04-01T15:08:42;8.60;99.90
24091;DHT22;12272;52.426;17.100;2023-04-01T15:14:05;8.50;99.90
24091;DHT22;12272;52.426;17.100;2023-04-01T15:19:31;8.50;99.90
24091;DHT22;12272;52.426;17.100;2023-04-01T15:30:31;8.40;99.90
24091;DHT22;12272;52.426;17.100;2023-04-01T16:29:48;8.30;99.90
24091;DHT22;12272;52.426;17.100;2023-04-01T16:35:04;8.30;99.90
24091;DHT22;12272;52.426;17.100;2023-04-01T16:45:41;8.20;99.90
24091;DHT22;12272;52.426;17.100;2023-04-01T16:50:52;7.90;99.90
24091;DHT22;12272;52.426;17.100;2023-04-01T16:56:20;7.80;99.90
24091;DHT22;12272;52.426;17.100;2023-04-01T17:01:28;7.60;99.90
24091;DHT22;12272;52.426;17.100;2023-04-01T17:06:50;7.40;99.90
24091;DHT22;12272;52.426;17.100;2023-04-01T17:12:05;7.50;99.90
24091;DHT22;12272;52.426;17.100;2023-04-01T17:17:35;7.40;99.90
24091;DHT22;12272;52.426;17.100;2023-04-01T17:22:48;7.20;99.90
24091;DHT22;12272;52.426;17.100;2023-04-01T17:28:27;7.10;99.90
24091;DHT22;12272;52.426;17.100;2023-04-01T18:16:33;6.70;99.90
24091;DHT22;12272;52.426;17.100;2023-04-01T18:21:57;6.60;99.90
24091;DHT22;12272;52.426;17.100;2023-04-01T18:27:06;6.60;99.90
24091;DHT22;12272;52.426;17.100;2023-04-01T18:37:29;6.90;99.90
24091;DHT22;12272;52.426;17.100;2023-04-01T18:42:55;6.70;99.90
24091;DHT22;12272;52.426;17.100;2023-04-01T18:58:48;6.60;99.90
24091;DHT22;12272;52.426;17.100;2023-04-01T19:09:24;6.40;99.90
24091;DHT22;12272;52.426;17.100;2023-04-01T19:20:29;6.60;99.90
24091;DHT22;12272;52.426;17.100;2023-04-01T19:25:41;6.50;99.90
24091;DHT22;12272;52.426;17.100;2023-04-01T19:52:47;6.00;99.90
24091;DHT22;12272;52.426;17.100;2023-04-01T19:58:28;5.90;99.90
24091;DHT22;12272;52.426;17.100;2023-04-01T20:24:45;5.90;99.90
24091;DHT22;12272;52.426;17.100;2023-04-01T20:29:56;5.90;99.90
24091;DHT22;12272;52.426;17.100;2023-04-01T20:40:38;6.00;99.90
24091;DHT22;12272;52.426;17.100;2023-04-01T20:51:07;5.60;99.90
24091;DHT22;12272;52.426;17.100;2023-04-01T21:44:18;5.40;99.90
24091;DHT22;12272;52.426;17.100;2023-04-01T22:00:06;5.20;99.90
24091;DHT22;12272;52.426;17.100;2023-04-01T22:05:24;5.10;99.90
24091;DHT22;12272;52.426;17.100;2023-04-01T22:10:51;5.20;99.90
24091;DHT22;12272;52.426;17.100;2023-04-01T22:16:16;5.50;99.90
24091;DHT22;12272;52.426;17.100;2023-04-01T22:43:12;5.00;99.90
24091;DHT22;12272;52.426;17.100;2023-04-01T22:48:32;4.80;99.90
24091;DHT22;12272;52.426;17.100;2023-04-01T22:59:00;4.90;99.90
24091;DHT22;12272;52.426;17.100;2023-04-01T23:04:05;4.70;99.90
24091;DHT22;12272;52.426;17.100;2023-04-01T23:09:19;4.70;99.90
24091;DHT22;12272;52.426;17.100;2023-04-01T23:14:39;4.80;99.90
24091;DHT22;12272;52.426;17.100;2023-04-01T23:36:10;4.40;99.90
24091;DHT22;12272;52.426;17.100;2023-04-01T23:41:27;4.60;99.90
24091;DHT22;12272;52.426;17.100;2023-04-01T23:46:33;4.50;99.90
24091;DHT22;12272;52.426;17.100;2023-04-01T23:51:39;4.70;99.90
24091;DHT22;12272;52.426;17.100;2023-04-01T23:56:51;4.60;99.90
